Terminal Aerodrome Forecast
Issued by NWS

Home | Current Version | Previous Version | Text Only | Print | Product List | Glossary On
Versions: 1 2 3 4 5 6 7 8 9 10 11 12 13 14 15
000
FTUS43 KMQT 290702 AAA
TAFSAW
TAF AMD
KSAW 290702Z 2907/3006 16006KT 1/2SM FG VCSH OVC002
      TEMPO 2907/2909 1/4SM FG
     FM291300 21007KT 2SM BR VCSH OVC003
     FM291500 24007KT P6SM VCSH OVC008
     FM291900 27009KT P6SM BKN015
     FM292300 33006KT P6SM BKN008=

USA.gov is the U.S. government's official web portal to all federal, state and local government web resources and services.